Главная страница
METAR-TAF:

METAR-TAF

Аэропорты :

Молде, Норвегия

широта: 62-45N, долгота: 007-16E, высота над уровнем моря: 0 м

Текущие метеонаблюдения

Эта сводка был подготовлена 29 минут назад, в 15:20 UTC
Ветер 9 Узел от северо-северо-восточный
Температура 0°C
Влажность 74%
Давление 1022 hPa
Видимость 10 км и более
Нет облачности ниже 1500 м, и нет кучево-дождевой облачности

METAR: ENML 151520Z 02009KT CAVOK M00/M04 Q1022

Время: 16:49 (15:49 UTC)

Прогноз

Эта сводка был подготовлена 1 час и 49 минут назад, в 14:00 UTC
Прогноз действительный с 15-го 15 UTC до 15-го 22 UTC
Ветер 8 Узел от северо-северо-восточный
Видимость 10 км и более
небольшая облачность на высоте 4000 фута

TAF: ENML 151400Z 1515/1522 03008KT 9999 FEW040

Метеонаблюдения и прогнозы для более 4000 аэропортов (сводки METAR и TAF).

Имеющиеся станции представлены на карте желтыми и красными точками.

Чтобы увидеть название станции, наведите на нее мышь.

Затем щелкните, чтобы увидеть метеонаблюдения и метеопрогнозы.

Управление картой: чтобы увеличить масштаб, щелкните зеленые кнопки с черным крестиком; чтобы уменьшить масштаб, щелкните зеленую кнопку с тире; для просмотра соседних карт щелкайте зеленые стрелки.


METAR-TAF: